Time;durP1;ratioP1;P1;durP2;ratioP2;P2;SDS_P1;SDS_P2;PMS_P1;PMS_P2;Temp;Humidity;BMP_temperature;BMP_pressure;BME280_temperature;BME280_humidity;BME280_pressure;Samples;Min_cycle;Max_cycle;Signal;HPM_P1;HPM_P2
2022/10/22 00:00:34;;;;;;;2.75;1.50;;;11.80;99.90;;;;;;5030555;28;20025;-76
2022/10/22 00:03:00;;;;;;;2.45;1.23;;;11.80;99.90;;;;;;5025682;28;20037;-77
2022/10/22 00:05:27;;;;;;;2.28;1.20;;;11.80;99.90;;;;;;5022740;28;20033;-77
2022/10/22 00:07:53;;;;;;;3.20;1.30;;;11.70;99.90;;;;;;5010092;28;20048;-78
2022/10/22 00:10:19;;;;;;;2.58;1.65;;;11.70;99.90;;;;;;5028996;28;20037;-78
2022/10/22 00:12:45;;;;;;;2.13;1.48;;;11.70;99.90;;;;;;5024668;28;20029;-79
2022/10/22 00:15:12;;;;;;;2.42;1.60;;;11.70;99.90;;;;;;5022624;28;20179;-78
2022/10/22 00:17:38;;;;;;;3.63;1.90;;;11.70;99.90;;;;;;5023535;28;20045;-78
2022/10/22 00:20:05;;;;;;;3.20;1.77;;;11.70;99.90;;;;;;5029323;28;20037;-78
2022/10/22 00:22:31;;;;;;;5.55;2.00;;;11.80;99.90;;;;;;5022859;28;20483;-78
2022/10/22 00:24:57;;;;;;;4.05;2.50;;;11.80;99.90;;;;;;5003782;28;20040;-78
2022/10/22 00:27:24;;;;;;;4.30;2.30;;;11.80;99.90;;;;;;5026368;28;20045;-77
2022/10/22 00:29:50;;;;;;;4.07;2.20;;;11.80;99.90;;;;;;5009666;28;20049;-78
2022/10/22 00:32:16;;;;;;;4.45;2.20;;;11.80;99.90;;;;;;5008619;28;20446;-78
2022/10/22 00:34:43;;;;;;;4.97;2.75;;;11.90;99.90;;;;;;5023098;28;20033;-77
2022/10/22 00:37:09;;;;;;;3.47;2.22;;;11.90;99.90;;;;;;5024940;28;20517;-78
2022/10/22 00:39:35;;;;;;;3.75;2.42;;;11.90;99.90;;;;;;5027483;28;20496;-78
2022/10/22 00:42:02;;;;;;;3.30;3.00;;;11.90;99.90;;;;;;5024057;28;20436;-78
2022/10/22 00:45:05;;;;;;;3.35;2.13;;;11.90;99.90;;;;;;5023608;28;20032;-77
2022/10/22 00:47:44;;;;;;;3.20;2.47;;;11.90;99.90;;;;;;5026582;28;20065;-76
2022/10/22 00:50:18;;;;;;;3.47;2.72;;;11.90;99.90;;;;;;5026296;28;20033;-79
2022/10/22 00:52:44;;;;;;;2.97;2.50;;;11.90;99.90;;;;;;5023584;28;20045;-76
2022/10/22 00:55:11;;;;;;;3.42;2.70;;;11.90;99.90;;;;;;5020887;28;20041;-77
2022/10/22 00:57:38;;;;;;;3.60;2.80;;;11.90;99.90;;;;;;4991224;28;20041;-77
2022/10/22 01:00:05;;;;;;;4.60;3.15;;;11.90;99.90;;;;;;5025632;28;20044;-77
2022/10/22 01:02:31;;;;;;;3.53;2.72;;;11.90;99.90;;;;;;5010689;28;20045;-77
2022/10/22 01:04:58;;;;;;;2.78;2.50;;;11.90;99.90;;;;;;5021963;28;20041;-78
2022/10/22 01:07:25;;;;;;;4.53;2.83;;;11.90;99.90;;;;;;5022825;28;20056;-77
2022/10/22 01:10:22;;;;;;;3.40;3.10;;;11.80;99.90;;;;;;5024557;28;20401;-78
2022/10/22 01:13:09;;;;;;;4.10;2.85;;;11.80;99.90;;;;;;5023205;28;20033;-78
2022/10/22 01:15:50;;;;;;;3.30;2.85;;;11.70;99.90;;;;;;5016498;28;103120;-76
2022/10/22 01:18:24;;;;;;;3.17;2.50;;;11.70;99.90;;;;;;5025614;28;20037;-76
2022/10/22 01:20:56;;;;;;;3.70;2.67;;;11.70;99.90;;;;;;5024956;28;20044;-76
2022/10/22 01:23:32;;;;;;;4.95;2.90;;;11.70;99.90;;;;;;5025974;28;20053;-79
2022/10/22 01:26:17;;;;;;;4.47;2.83;;;11.70;99.90;;;;;;5021219;28;20053;-77
2022/10/22 01:29:13;;;;;;;3.22;2.60;;;11.80;99.90;;;;;;5023599;28;20043;-78
2022/10/22 01:31:47;;;;;;;3.38;2.67;;;11.80;99.90;;;;;;5023432;28;20044;-78
2022/10/22 01:34:16;;;;;;;3.50;2.08;;;11.70;99.90;;;;;;5022582;28;20049;-79
2022/10/22 01:36:44;;;;;;;3.20;2.38;;;11.70;99.90;;;;;;5021708;28;20041;-79
2022/10/22 01:39:14;;;;;;;3.67;2.85;;;11.60;99.90;;;;;;4992472;28;20382;-77
2022/10/22 01:41:46;;;;;;;4.00;2.58;;;11.60;99.90;;;;;;5020447;28;20041;-78
2022/10/22 01:44:26;;;;;;;;;;;11.60;99.90;;;;;;5020245;28;20582;-77
2022/10/22 01:47:01;;;;;;;4.15;2.22;;;11.50;99.90;;;;;;5021591;28;19917;-78
2022/10/22 01:49:58;;;;;;;3.72;2.33;;;11.50;99.90;;;;;;5027046;28;20045;-76
2022/10/22 01:52:57;;;;;;;2.45;2.20;;;11.40;99.90;;;;;;5023794;28;20041;-79
2022/10/22 01:55:46;;;;;;;3.92;2.65;;;11.40;99.90;;;;;;4997107;28;20491;-76
2022/10/22 01:58:30;;;;;;;4.82;2.40;;;11.40;99.90;;;;;;5022714;28;20029;-78
2022/10/22 02:01:07;;;;;;;4.38;2.30;;;11.40;99.90;;;;;;5025919;28;20500;-77
2022/10/22 02:03:47;;;;;;;5.82;3.15;;;11.30;99.90;;;;;;5022689;28;20045;-78
2022/10/22 02:06:19;;;;;;;3.10;2.58;;;11.30;99.90;;;;;;5018738;28;20377;-78
2022/10/22 02:08:47;;;;;;;4.00;2.90;;;11.30;99.90;;;;;;5004883;28;20056;-78
2022/10/22 02:11:14;;;;;;;8.88;4.68;;;11.30;99.90;;;;;;5005034;28;20404;-78
2022/10/22 02:13:47;;;;;;;5.32;3.53;;;11.30;99.90;;;;;;5022246;28;20512;-78
2022/10/22 02:16:20;;;;;;;4.03;3.28;;;11.30;99.90;;;;;;5018368;28;20064;-79
2022/10/22 02:18:50;;;;;;;3.70;3.35;;;11.30;99.90;;;;;;5024748;28;20041;-80
2022/10/22 02:21:17;;;;;;;4.78;3.70;;;11.30;99.90;;;;;;5023521;28;20033;-77
2022/10/22 02:23:44;;;;;;;3.95;3.33;;;11.30;99.90;;;;;;5023615;28;20049;-78
2022/10/22 02:26:43;;;;;;;3.78;3.13;;;11.20;99.90;;;;;;5019699;28;20400;-78
2022/10/22 02:29:19;;;;;;;3.63;2.88;;;11.20;99.90;;;;;;5022809;28;20049;-79
2022/10/22 02:31:47;;;;;;;3.28;2.80;;;11.10;99.90;;;;;;5024323;28;20048;-78
2022/10/22 02:34:20;;;;;;;3.65;2.33;;;11.10;99.90;;;;;;5003692;28;20052;-78
2022/10/22 02:36:47;;;;;;;;;;;11.10;99.90;;;;;;5021719;28;20037;-78
2022/10/22 02:39:14;;;;;;;3.38;2.42;;;11.10;99.90;;;;;;5023899;28;19916;-79
2022/10/22 02:41:41;;;;;;;6.32;3.35;;;11.10;99.90;;;;;;5021689;28;20045;-79
2022/10/22 02:44:09;;;;;;;5.07;2.85;;;11.10;99.90;;;;;;5019960;28;20072;-78
2022/10/22 02:46:37;;;;;;;4.53;2.90;;;11.00;99.90;;;;;;5002534;28;20373;-77
2022/10/22 02:49:04;;;;;;;4.97;3.42;;;11.00;99.90;;;;;;5023277;28;20037;-78
2022/10/22 02:51:30;;;;;;;4.03;3.38;;;11.00;99.90;;;;;;5023219;28;20373;-76
2022/10/22 02:53:56;;;;;;;5.05;2.88;;;11.00;99.90;;;;;;5021551;28;21145;-77
2022/10/22 02:56:22;;;;;;;6.63;3.20;;;11.00;99.90;;;;;;5019128;28;20420;-79
2022/10/22 02:58:49;;;;;;;5.03;3.42;;;11.00;99.90;;;;;;5022436;28;20045;-79
2022/10/22 03:01:15;;;;;;;3.20;2.90;;;11.00;99.90;;;;;;5022609;28;20038;-77
2022/10/22 03:03:41;;;;;;;5.68;3.28;;;11.00;99.90;;;;;;5023960;28;20064;-78
2022/10/22 03:06:08;;;;;;;4.60;2.90;;;11.00;99.90;;;;;;5021064;28;20029;-77
2022/10/22 03:08:34;;;;;;;3.13;2.75;;;11.00;99.90;;;;;;5028441;28;20045;-77
2022/10/22 03:11:01;;;;;;;3.20;2.58;;;11.00;99.90;;;;;;5026902;28;20045;-78
2022/10/22 03:13:27;;;;;;;3.28;2.92;;;11.00;99.90;;;;;;5020467;28;20045;-78
2022/10/22 03:15:53;;;;;;;5.15;3.20;;;11.10;99.90;;;;;;5019956;28;20053;-79
2022/10/22 03:18:20;;;;;;;4.63;3.63;;;11.10;99.90;;;;;;5025029;28;21099;-79
2022/10/22 03:20:46;;;;;;;3.45;2.97;;;11.10;99.90;;;;;;5023279;28;20064;-79
2022/10/22 03:23:15;;;;;;;6.75;3.40;;;11.10;99.90;;;;;;5027791;28;20025;-78
2022/10/22 03:25:42;;;;;;;3.95;3.30;;;11.10;99.90;;;;;;5018589;28;20040;-78
2022/10/22 03:28:10;;;;;;;3.90;2.97;;;11.10;99.90;;;;;;5023323;28;20045;-77
2022/10/22 03:30:36;;;;;;;4.78;3.40;;;11.10;99.90;;;;;;5025098;28;20491;-77
2022/10/22 03:33:02;;;;;;;5.25;4.03;;;11.10;99.90;;;;;;5023240;28;20029;-77
2022/10/22 03:35:30;;;;;;;5.30;3.47;;;11.10;99.90;;;;;;5020737;28;20033;-79
2022/10/22 03:37:59;;;;;;;3.33;3.00;;;11.10;99.90;;;;;;5024912;28;20049;-78
2022/10/22 03:40:26;;;;;;;4.03;2.70;;;11.10;99.90;;;;;;5024084;28;20042;-79
2022/10/22 03:42:52;;;;;;;3.47;2.58;;;11.10;99.90;;;;;;5022054;28;20056;-79
2022/10/22 03:45:18;;;;;;;4.63;2.38;;;11.10;99.90;;;;;;5018167;28;20057;-78
2022/10/22 03:47:45;;;;;;;5.55;3.28;;;11.10;99.90;;;;;;5023342;28;20037;-78
2022/10/22 03:50:11;;;;;;;3.22;2.92;;;11.10;99.90;;;;;;5025076;28;20068;-78
2022/10/22 03:52:38;;;;;;;5.53;2.53;;;11.10;99.90;;;;;;5022675;28;20033;-78
2022/10/22 03:55:06;;;;;;;5.10;2.95;;;11.00;99.90;;;;;;5018208;28;20903;-79
2022/10/22 03:57:32;;;;;;;2.95;2.50;;;11.00;99.90;;;;;;5026519;28;20041;-79
2022/10/22 03:59:59;;;;;;;4.38;2.40;;;11.00;99.90;;;;;;5006524;28;20903;-79
2022/10/22 04:02:25;;;;;;;3.55;2.30;;;11.00;99.90;;;;;;5019902;28;20485;-79
2022/10/22 04:04:51;;;;;;;3.58;2.72;;;10.90;99.90;;;;;;5017144;28;20382;-77
2022/10/22 04:07:18;;;;;;;4.05;2.78;;;10.90;99.90;;;;;;5021936;28;20044;-79
2022/10/22 04:09:44;;;;;;;5.10;2.72;;;10.90;99.90;;;;;;5010799;28;20038;-78
2022/10/22 04:12:10;;;;;;;4.30;3.00;;;10.90;99.90;;;;;;5024886;28;20048;-77
2022/10/22 04:14:36;;;;;;;8.80;5.72;;;10.90;99.90;;;;;;5007151;28;20049;-79
2022/10/22 04:17:02;;;;;;;7.38;3.22;;;11.00;99.90;;;;;;5021790;28;20524;-79
2022/10/22 04:19:29;;;;;;;5.47;3.47;;;11.00;99.90;;;;;;5026283;28;20595;-79
2022/10/22 04:21:58;;;;;;;4.30;2.97;;;11.00;99.90;;;;;;5026808;28;20068;-79
2022/10/22 04:24:25;;;;;;;3.85;3.28;;;11.00;99.90;;;;;;5022243;28;20033;-77
2022/10/22 04:26:53;;;;;;;3.97;3.20;;;11.00;99.90;;;;;;5022281;28;20496;-80
2022/10/22 04:29:20;;;;;;;5.10;3.28;;;11.00;99.90;;;;;;5023956;28;20060;-80
2022/10/22 04:31:46;;;;;;;5.72;2.92;;;10.90;99.90;;;;;;5023630;28;20048;-77
2022/10/22 04:34:12;;;;;;;5.05;2.80;;;10.90;99.90;;;;;;5022108;28;20048;-80
2022/10/22 04:36:38;;;;;;;5.60;2.80;;;10.90;99.90;;;;;;5021249;28;20045;-79
2022/10/22 04:39:05;;;;;;;6.07;4.10;;;10.90;99.90;;;;;;5025119;28;20022;-78
2022/10/22 04:41:37;;;;;;;3.75;2.90;;;10.80;99.90;;;;;;5023637;28;20044;-78
2022/10/22 04:44:04;;;;;;;3.30;3.00;;;10.80;99.90;;;;;;5022507;28;20030;-77
2022/10/22 04:46:33;;;;;;;7.40;3.45;;;10.80;99.90;;;;;;5021020;28;20041;-79
2022/10/22 04:48:59;;;;;;;5.57;3.38;;;10.80;99.90;;;;;;5024105;28;20033;-79
2022/10/22 04:51:26;;;;;;;5.72;3.55;;;10.80;99.90;;;;;;5025738;28;20049;-80
2022/10/22 04:53:53;;;;;;;5.03;2.80;;;10.80;99.90;;;;;;5022701;28;20048;-77
2022/10/22 04:56:22;;;;;;;6.38;3.35;;;10.70;99.90;;;;;;5020646;28;20038;-79
2022/10/22 04:58:53;;;;;;;6.63;3.60;;;10.70;99.90;;;;;;5023571;28;20511;-79
2022/10/22 05:01:21;;;;;;;4.47;3.17;;;10.70;99.90;;;;;;5024508;28;20620;-77
2022/10/22 05:03:50;;;;;;;3.38;2.63;;;10.70;99.90;;;;;;5025693;28;20033;-79
2022/10/22 05:06:16;;;;;;;4.60;3.15;;;10.70;99.90;;;;;;5019840;28;20048;-79
2022/10/22 05:08:43;;;;;;;3.78;2.95;;;10.60;99.90;;;;;;5024658;28;20041;-79
2022/10/22 05:11:20;;;;;;;4.88;3.25;;;10.60;99.90;;;;;;5023560;28;20033;-79
2022/10/22 05:13:47;;;;;;;6.05;3.17;;;10.70;99.90;;;;;;5006191;28;20415;-79
2022/10/22 05:16:13;;;;;;;6.70;3.22;;;10.70;99.90;;;;;;4985459;28;20064;-80
2022/10/22 05:18:42;;;;;;;4.82;3.35;;;10.70;99.90;;;;;;5023259;28;20034;-79
2022/10/22 05:21:11;;;;;;;5.93;3.42;;;10.60;99.90;;;;;;5023491;28;20044;-77
2022/10/22 05:23:38;;;;;;;5.15;3.17;;;10.60;99.90;;;;;;5023989;28;20044;-79
2022/10/22 05:26:06;;;;;;;4.97;3.85;;;10.60;99.90;;;;;;5020692;28;20031;-79
2022/10/22 05:28:33;;;;;;;4.53;2.70;;;10.60;99.90;;;;;;5022331;28;20068;-77
2022/10/22 05:31:00;;;;;;;5.82;2.72;;;10.60;99.90;;;;;;5030758;28;20041;-78
2022/10/22 05:33:28;;;;;;;6.03;2.50;;;10.60;99.90;;;;;;5025935;28;20048;-80
2022/10/22 05:35:54;;;;;;;4.10;3.20;;;10.50;99.90;;;;;;5020733;28;20041;-79
2022/10/22 05:38:21;;;;;;;5.68;2.55;;;10.50;99.90;;;;;;5023994;28;20060;-79
2022/10/22 05:40:57;;;;;;;3.92;2.63;;;10.50;99.90;;;;;;5025805;28;20037;-80
2022/10/22 05:43:23;;;;;;;4.82;3.72;;;10.50;99.90;;;;;;5024345;28;20045;-80
2022/10/22 05:45:49;;;;;;;9.35;5.07;;;10.50;99.90;;;;;;5001987;28;20048;-79
2022/10/22 05:48:16;;;;;;;5.55;3.65;;;10.50;99.90;;;;;;5022162;28;20033;-79
2022/10/22 05:50:45;;;;;;;5.18;3.88;;;10.50;99.90;;;;;;5023699;28;20147;-77
2022/10/22 05:53:11;;;;;;;5.60;3.15;;;10.50;99.90;;;;;;5023839;28;20507;-79
2022/10/22 05:55:39;;;;;;;7.68;4.50;;;10.50;99.90;;;;;;5018700;28;20037;-79
2022/10/22 05:58:05;;;;;;;5.32;4.32;;;10.50;99.90;;;;;;5023556;28;20503;-77
2022/10/22 06:00:33;;;;;;;13.35;10.60;;;10.50;99.90;;;;;;5025940;28;20108;-78
2022/10/22 06:02:59;;;;;;;15.27;8.98;;;10.50;99.90;;;;;;5026181;28;20088;-77
2022/10/22 06:05:26;;;;;;;14.07;9.02;;;10.50;99.90;;;;;;5019780;28;20033;-78
2022/10/22 06:07:52;;;;;;;8.60;6.13;;;10.50;99.90;;;;;;5024265;28;20060;-79
2022/10/22 06:10:19;;;;;;;8.10;5.68;;;10.50;99.90;;;;;;5025367;28;20029;-78
2022/10/22 06:12:47;;;;;;;9.13;5.63;;;10.50;99.90;;;;;;5023387;28;20427;-79
2022/10/22 06:15:15;;;;;;;10.18;5.25;;;10.60;99.90;;;;;;5018466;28;20033;-79
2022/10/22 06:17:43;;;;;;;10.55;6.78;;;10.60;99.90;;;;;;5021131;28;20048;-77
2022/10/22 06:20:11;;;;;;;11.02;7.25;;;10.80;99.90;;;;;;5017640;28;20033;-77
2022/10/22 06:22:37;;;;;;;10.52;6.88;;;10.80;99.90;;;;;;5007191;28;20044;-77
2022/10/22 06:25:05;;;;;;;8.35;6.40;;;10.90;99.90;;;;;;5001125;28;20041;-78
2022/10/22 06:27:31;;;;;;;11.32;5.10;;;11.00;99.90;;;;;;5020995;28;20033;-77
2022/10/22 06:29:57;;;;;;;7.20;4.25;;;11.10;99.90;;;;;;5005931;28;20045;-78
2022/10/22 06:32:23;;;;;;;7.20;3.88;;;11.30;99.90;;;;;;4988180;28;20049;-80
2022/10/22 06:34:50;;;;;;;6.38;3.40;;;11.40;99.90;;;;;;5019020;28;20041;-80
2022/10/22 06:37:16;;;;;;;7.88;3.15;;;11.50;99.90;;;;;;5023051;28;20025;-77
2022/10/22 06:39:42;;;;;;;7.35;3.85;;;11.60;99.90;;;;;;5022278;28;20028;-75
2022/10/22 06:42:09;;;;;;;6.65;3.17;;;11.70;99.90;;;;;;5023365;28;20428;-78
2022/10/22 06:44:35;;;;;;;5.63;3.22;;;11.80;99.90;;;;;;5023684;28;20040;-78
2022/10/22 06:47:01;;;;;;;5.63;2.47;;;11.90;99.90;;;;;;5020289;28;20029;-77
2022/10/22 06:49:28;;;;;;;6.55;3.50;;;11.90;99.90;;;;;;5025732;28;20042;-79
2022/10/22 06:51:54;;;;;;;6.15;3.65;;;12.00;99.90;;;;;;5006196;28;20440;-77
2022/10/22 06:54:21;;;;;;;6.60;2.83;;;12.00;99.90;;;;;;5022108;28;20409;-78
2022/10/22 06:56:48;;;;;;;11.95;6.50;;;12.00;99.90;;;;;;5021380;28;20041;-77
2022/10/22 06:59:14;;;;;;;9.77;6.80;;;12.00;99.90;;;;;;5022793;28;20391;-78
2022/10/22 07:01:41;;;;;;;7.80;6.53;;;12.00;99.90;;;;;;5021099;28;20029;-78
2022/10/22 07:04:09;;;;;;;9.10;4.75;;;12.00;99.90;;;;;;5023632;28;20496;-76
2022/10/22 07:06:35;;;;;;;9.77;5.18;;;12.10;99.90;;;;;;5019832;28;20388;-76
2022/10/22 07:09:01;;;;;;;7.10;3.42;;;12.10;99.90;;;;;;5022676;28;20033;-77
2022/10/22 07:11:31;;;;;;;7.32;3.00;;;12.20;99.90;;;;;;5005920;28;20057;-78
2022/10/22 07:13:58;;;;;;;10.20;4.05;;;12.20;99.90;;;;;;5021174;28;20041;-79
2022/10/22 07:16:25;;;;;;;5.78;3.08;;;12.40;99.90;;;;;;5019867;28;20528;-77
2022/10/22 07:18:51;;;;;;;5.30;2.83;;;12.50;99.90;;;;;;5023069;28;20045;-76
2022/10/22 07:21:19;;;;;;;5.28;2.97;;;12.70;99.90;;;;;;5022285;28;20468;-77
2022/10/22 07:23:45;;;;;;;8.45;4.43;;;12.80;99.90;;;;;;5019006;28;20034;-77
2022/10/22 07:26:14;;;;;;;3.92;3.10;;;13.00;99.90;;;;;;5016860;28;20038;-78
2022/10/22 07:28:41;;;;;;;9.35;4.43;;;13.10;99.90;;;;;;5019020;28;20362;-78
2022/10/22 07:31:09;;;;;;;10.05;4.20;;;13.20;99.90;;;;;;4993548;28;20049;-77
2022/10/22 07:33:37;;;;;;;8.82;4.28;;;13.30;99.90;;;;;;5024035;28;20025;-77
2022/10/22 07:36:06;;;;;;;9.80;4.75;;;13.40;99.90;;;;;;5017108;28;20261;-77
2022/10/22 07:38:33;;;;;;;8.27;5.22;;;13.40;99.90;;;;;;5004412;28;20048;-79
2022/10/22 07:40:59;;;;;;;6.10;2.72;;;13.50;99.90;;;;;;5023526;28;20045;-78
2022/10/22 07:43:26;;;;;;;13.57;6.30;;;13.50;99.90;;;;;;5023656;28;20434;-77
2022/10/22 07:45:54;;;;;;;13.52;5.82;;;13.60;99.90;;;;;;5017015;28;20318;-78
2022/10/22 07:48:21;;;;;;;8.07;4.05;;;13.70;99.90;;;;;;5038914;28;20889;-75
2022/10/22 07:50:49;;;;;;;6.70;3.42;;;13.70;99.90;;;;;;5022608;28;20048;-79
2022/10/22 07:53:16;;;;;;;7.85;3.90;;;13.80;99.90;;;;;;5022435;28;20041;-77
2022/10/22 07:55:42;;;;;;;9.30;3.72;;;13.90;99.90;;;;;;5019044;28;20026;-78
2022/10/22 07:58:08;;;;;;;7.22;3.80;;;14.00;99.90;;;;;;5024255;28;20389;-77
2022/10/22 08:00:34;;;;;;;9.82;6.85;;;14.00;99.90;;;;;;4991858;28;20042;-75
2022/10/22 08:03:00;;;;;;;8.93;5.18;;;14.00;99.90;;;;;;5006799;28;20121;-76
2022/10/22 08:05:27;;;;;;;8.48;4.55;;;14.00;99.90;;;;;;5018796;28;20500;-78
2022/10/22 08:07:53;;;;;;;7.70;4.18;;;14.00;99.90;;;;;;5019640;28;20492;-78
2022/10/22 08:10:19;;;;;;;9.35;4.57;;;14.00;99.90;;;;;;5026852;28;20399;-76
2022/10/22 08:12:45;;;;;;;13.40;6.80;;;14.00;99.90;;;;;;5022840;28;20033;-77
2022/10/22 08:15:12;;;;;;;12.68;7.25;;;14.10;99.90;;;;;;5017197;28;20040;-76
2022/10/22 08:17:38;;;;;;;12.50;5.55;;;14.20;99.90;;;;;;5007165;28;20049;-76
2022/10/22 08:20:05;;;;;;;11.55;4.25;;;14.30;99.90;;;;;;5024984;28;20033;-77
2022/10/22 08:22:31;;;;;;;9.07;3.42;;;14.50;99.90;;;;;;5023023;28;20088;-78
2022/10/22 08:24:59;;;;;;;8.65;3.45;;;14.60;99.90;;;;;;5021109;28;20041;-78
2022/10/22 08:27:25;;;;;;;7.57;2.97;;;14.70;99.90;;;;;;5025289;28;20412;-79
2022/10/22 08:29:51;;;;;;;15.65;3.53;;;14.90;99.90;;;;;;5006697;28;20049;-78
2022/10/22 08:32:18;;;;;;;8.63;3.40;;;14.90;99.90;;;;;;5023148;28;20037;-77
2022/10/22 08:34:44;;;;;;;9.40;2.90;;;15.00;99.90;;;;;;5020992;28;20025;-76
2022/10/22 08:37:13;;;;;;;9.82;2.75;;;15.00;99.90;;;;;;5023246;28;20044;-77
2022/10/22 08:39:40;;;;;;;10.02;2.85;;;15.00;99.90;;;;;;5007684;28;20041;-78
2022/10/22 08:42:27;;;;;;;13.38;3.50;;;15.10;99.90;;;;;;5025509;28;20037;-78
2022/10/22 08:45:09;;;;;;;9.32;3.08;;;15.10;99.90;;;;;;5019130;28;20408;-76
2022/10/22 08:48:06;;;;;;;7.30;2.10;;;15.10;99.90;;;;;;5024076;28;20052;-79
2022/10/22 08:50:37;;;;;;;13.23;2.92;;;15.20;99.90;;;;;;5025144;28;20046;-79
2022/10/22 08:53:11;;;;;;;8.30;2.60;;;15.30;99.90;;;;;;5024095;28;20052;-78
2022/10/22 08:55:38;;;;;;;8.15;2.38;;;15.40;99.90;;;;;;5020454;28;20040;-76
2022/10/22 08:58:22;;;;;;;10.77;3.75;;;15.40;99.90;;;;;;5006187;28;20042;-78
2022/10/22 09:00:59;;;;;;;9.07;3.05;;;15.60;99.90;;;;;;5021912;28;20052;-80
2022/10/22 09:03:26;;;;;;;9.13;3.83;;;15.60;99.90;;;;;;5022295;28;20041;-76
2022/10/22 09:06:00;;;;;;;7.28;2.80;;;15.60;99.90;;;;;;5017552;28;20037;-76
2022/10/22 09:08:27;;;;;;;10.27;2.35;;;15.70;99.90;;;;;;5021161;28;20064;-76
2022/10/22 09:11:25;;;;;;;15.27;6.28;;;15.70;99.90;;;;;;5020998;28;20072;-75
2022/10/22 09:13:53;;;;;;;8.93;2.63;;;15.70;99.90;;;;;;5017684;28;20080;-74
2022/10/22 09:16:35;;;;;;;10.60;2.38;;;15.70;99.90;;;;;;5020124;28;20500;-77
2022/10/22 09:19:35;;;;;;;8.98;2.08;;;15.70;99.90;;;;;;5022550;28;20412;-78
2022/10/22 09:22:37;;;;;;;8.68;1.33;;;15.70;99.90;;;;;;5023256;28;20033;-76
2022/10/22 09:25:22;;;;;;;9.05;1.90;;;15.70;99.90;;;;;;5021162;28;20071;-75
2022/10/22 09:27:49;;;;;;;11.70;2.00;;;15.60;99.90;;;;;;5005059;28;20025;-76
2022/10/22 09:30:17;;;;;;;8.52;1.58;;;15.60;99.90;;;;;;5021329;28;20819;-74
2022/10/22 09:32:44;;;;;;;7.97;1.33;;;15.50;99.90;;;;;;5025120;28;20037;-75
2022/10/22 09:35:12;;;;;;;5.55;1.45;;;15.60;99.90;;;;;;5018263;28;21068;-75
2022/10/22 09:37:52;;;;;;;7.50;1.20;;;15.60;99.90;;;;;;5023502;28;20026;-76
2022/10/22 09:40:21;;;;;;;7.10;1.45;;;15.60;99.90;;;;;;5023612;28;20033;-76
2022/10/22 09:42:47;;;;;;;7.95;1.50;;;15.60;99.90;;;;;;5005603;28;20048;-77
2022/10/22 09:45:20;;;;;;;7.13;1.38;;;15.60;99.90;;;;;;5018798;28;20041;-77
2022/10/22 09:47:46;;;;;;;;;;;15.60;99.90;;;;;;5022907;28;20029;-76
2022/10/22 09:50:35;;;;;;;9.20;1.60;;;15.60;99.90;;;;;;5023790;28;19917;-76
2022/10/22 09:53:12;;;;;;;7.68;1.20;;;15.70;99.90;;;;;;5011441;28;20052;-76
2022/10/22 09:55:40;;;;;;;6.97;0.88;;;15.70;99.90;;;;;;5015500;28;20056;-76
2022/10/22 09:58:12;;;;;;;8.13;0.73;;;15.80;99.90;;;;;;5022276;28;20037;-75
2022/10/22 10:00:44;;;;;;;6.40;1.43;;;15.90;99.90;;;;;;5023093;28;20037;-75
2022/10/22 10:03:32;;;;;;;6.82;1.55;;;15.90;99.90;;;;;;5023538;28;20279;-75
2022/10/22 10:06:00;;;;;;;5.65;1.17;;;16.00;99.90;;;;;;5016128;28;20040;-78
2022/10/22 10:08:26;;;;;;;7.05;1.65;;;16.00;99.90;;;;;;5023029;28;20090;-77
2022/10/22 10:11:12;;;;;;;4.88;1.50;;;16.10;99.90;;;;;;5018762;28;20602;-74
2022/10/22 10:14:00;;;;;;;10.13;1.67;;;16.20;99.90;;;;;;5017812;28;20045;-76
2022/10/22 10:16:32;;;;;;;7.53;1.48;;;16.30;99.90;;;;;;5017531;28;20053;-78
2022/10/22 10:19:17;;;;;;;8.15;1.98;;;16.40;99.90;;;;;;5005629;28;20483;-77
2022/10/22 10:21:56;;;;;;;5.05;1.27;;;16.40;99.90;;;;;;5019902;28;20038;-77
2022/10/22 10:24:31;;;;;;;5.88;1.38;;;16.50;99.90;;;;;;5018957;28;20036;-76
2022/10/22 10:26:59;;;;;;;11.90;2.67;;;16.40;99.90;;;;;;5023684;28;20045;-78
2022/10/22 10:29:48;;;;;;;12.23;1.95;;;16.50;99.90;;;;;;4992677;28;20072;-78
2022/10/22 10:32:18;;;;;;;13.40;5.68;;;16.60;99.90;;;;;;5021104;28;20041;-75
2022/10/22 10:35:20;;;;;;;13.02;3.78;;;16.70;99.90;;;;;;5002227;28;20408;-74
2022/10/22 10:38:08;;;;;;;12.82;2.28;;;16.70;99.90;;;;;;5003431;28;20402;-76
2022/10/22 10:40:50;;;;;;;8.60;1.52;;;16.70;99.90;;;;;;5022176;28;20049;-75
2022/10/22 10:43:37;;;;;;;5.22;1.33;;;16.60;99.90;;;;;;5021289;28;20372;-75
2022/10/22 10:46:25;;;;;;;8.45;1.50;;;16.50;99.90;;;;;;5017607;28;20045;-72
2022/10/22 10:49:23;;;;;;;9.35;2.03;;;16.50;99.90;;;;;;5021091;28;20152;-75
2022/10/22 10:51:56;;;;;;;7.10;1.45;;;16.50;99.90;;;;;;5021477;28;20029;-76
2022/10/22 10:54:34;;;;;;;6.78;1.45;;;16.60;99.90;;;;;;5021716;28;20559;-76
2022/10/22 10:57:18;;;;;;;6.15;1.92;;;16.60;99.90;;;;;;5002598;28;20472;-76
2022/10/22 11:00:14;;;;;;;7.55;1.52;;;16.80;99.90;;;;;;5021642;28;20038;-76
2022/10/22 11:03:09;;;;;;;5.15;1.55;;;17.00;99.90;;;;;;5021768;28;20480;-75
2022/10/22 11:05:40;;;;;;;6.05;1.65;;;17.30;99.90;;;;;;4998316;28;20052;-75
2022/10/22 11:08:31;;;;;;;5.95;1.05;;;17.50;99.90;;;;;;5002396;28;20048;-76
2022/10/22 11:11:11;;;;;;;5.72;1.33;;;17.80;99.90;;;;;;5018508;28;20388;-76
2022/10/22 11:13:43;;;;;;;9.65;1.70;;;18.00;99.90;;;;;;5003859;28;20046;-76
2022/10/22 11:16:31;;;;;;;7.00;1.40;;;18.10;99.90;;;;;;5017157;28;20056;-73
2022/10/22 11:19:08;;;;;;;6.80;1.50;;;18.20;99.90;;;;;;5023034;28;20044;-75
2022/10/22 11:22:09;;;;;;;8.35;1.63;;;18.30;99.90;;;;;;5024951;28;20034;-74
2022/10/22 11:24:52;;;;;;;8.10;1.88;;;18.40;99.90;;;;;;5005919;28;20041;-74
2022/10/22 11:27:43;;;;;;;7.60;1.80;;;18.50;99.90;;;;;;5007415;28;20025;-75
2022/10/22 11:30:18;;;;;;;4.72;1.00;;;18.70;99.90;;;;;;5023985;28;20028;-75
2022/10/22 11:32:57;;;;;;;15.45;6.88;;;18.70;99.90;;;;;;5009095;28;20045;-75
2022/10/22 11:35:27;;;;;;;16.02;7.25;;;18.80;99.90;;;;;;5021648;28;20026;-75
2022/10/22 11:37:55;;;;;;;12.73;4.15;;;18.80;99.90;;;;;;5025237;28;20033;-82
2022/10/22 11:40:34;;;;;;;7.28;1.35;;;18.80;99.90;;;;;;5024200;28;20033;-75
2022/10/22 11:43:09;;;;;;;11.63;1.75;;;18.80;99.90;;;;;;5025743;28;20033;-76
2022/10/22 11:45:38;;;;;;;9.10;1.35;;;18.90;99.90;;;;;;4999147;28;20049;-74
2022/10/22 11:48:09;;;;;;;6.15;0.70;;;19.10;99.90;;;;;;5022937;28;20048;-74
2022/10/22 11:50:53;;;;;;;5.38;1.00;;;19.20;99.90;;;;;;5023429;28;20148;-76
2022/10/22 11:53:31;;;;;;;7.95;1.08;;;19.00;99.90;;;;;;5023120;28;20049;-77
2022/10/22 11:56:02;;;;;;;5.85;0.88;;;18.90;99.90;;;;;;5005041;28;20067;-76
2022/10/22 11:58:31;;;;;;;8.70;1.20;;;18.80;99.90;;;;;;5024653;28;20042;-75
2022/10/22 12:01:00;;;;;;;4.72;0.70;;;18.70;99.90;;;;;;5024570;28;20038;-77
2022/10/22 12:03:33;;;;;;;7.28;1.25;;;18.60;99.90;;;;;;5024532;28;20045;-76
2022/10/22 12:06:11;;;;;;;7.00;0.80;;;18.50;99.90;;;;;;5020872;28;20041;-77
2022/10/22 12:08:48;;;;;;;8.88;0.70;;;18.50;99.90;;;;;;5032291;28;20042;-76
2022/10/22 12:11:29;;;;;;;7.68;0.90;;;18.40;99.90;;;;;;5030335;28;20444;-75
2022/10/22 12:13:59;;;;;;;5.97;0.93;;;18.30;99.90;;;;;;5023882;28;20042;-73
2022/10/22 12:16:28;;;;;;;6.53;0.77;;;18.10;99.90;;;;;;5023410;28;21482;-77
2022/10/22 12:19:03;;;;;;;6.90;1.38;;;18.10;99.90;;;;;;5031554;28;20025;-78
2022/10/22 12:21:32;;;;;;;11.23;1.08;;;18.30;99.90;;;;;;5027235;28;20041;-78
2022/10/22 12:24:01;;;;;;;7.43;0.90;;;18.50;99.90;;;;;;5026374;28;20041;-76
2022/10/22 12:26:30;;;;;;;4.97;0.60;;;19.00;99.90;;;;;;5024429;28;20045;-77
2022/10/22 12:29:09;;;;;;;6.05;0.90;;;19.60;99.90;;;;;;5024862;28;20029;-77
2022/10/22 12:31:38;;;;;;;6.07;1.02;;;20.10;99.90;;;;;;5029879;28;20045;-75
2022/10/22 12:34:05;;;;;;;7.10;1.33;;;20.10;99.90;;;;;;5025383;28;20404;-77
2022/10/22 12:36:35;;;;;;;8.00;1.00;;;19.90;99.90;;;;;;5022834;28;20500;-77
2022/10/22 12:39:08;;;;;;;8.68;1.25;;;19.60;99.90;;;;;;5026035;28;20036;-76
2022/10/22 12:41:36;;;;;;;3.53;0.50;;;19.20;99.90;;;;;;5026443;28;20472;-75
2022/10/22 12:44:04;;;;;;;7.22;1.10;;;18.90;99.90;;;;;;5025118;28;20029;-76
2022/10/22 12:46:33;;;;;;;7.47;1.00;;;18.60;99.90;;;;;;5025309;28;20052;-76
2022/10/22 12:49:01;;;;;;;4.75;0.63;;;18.40;99.90;;;;;;5025036;28;20037;-77
2022/10/22 12:51:28;;;;;;;5.53;0.68;;;18.20;99.90;;;;;;5025430;28;20464;-76
2022/10/22 12:53:59;;;;;;;5.68;1.05;;;18.00;99.90;;;;;;5023633;28;20037;-75
2022/10/22 12:56:30;;;;;;;4.95;0.55;;;17.90;99.90;;;;;;5022733;28;20028;-77
2022/10/22 12:59:03;;;;;;;5.68;0.80;;;17.90;99.90;;;;;;5023828;28;20033;-76
2022/10/22 13:01:38;;;;;;;4.45;0.45;;;17.90;99.90;;;;;;5028138;28;20049;-76
2022/10/22 13:04:21;;;;;;;6.20;0.60;;;18.00;99.90;;;;;;5026997;28;20502;-77
2022/10/22 13:07:03;;;;;;;6.65;0.60;;;18.20;99.90;;;;;;5023796;28;20121;-73